createdAt,value
2018-05-26T00:00:26.089Z,73.59
2018-05-26T00:01:26.121Z,73.88
2018-05-26T00:02:26.060Z,74.36
2018-05-26T00:03:26.046Z,73.97
2018-05-26T00:04:26.031Z,74.36
2018-05-26T00:05:26.015Z,74.55
2018-05-26T00:06:26.001Z,74.45
2018-05-26T00:07:25.986Z,74.55
2018-05-26T00:08:25.971Z,75.51
2018-05-26T00:09:25.957Z,75.79
2018-05-26T00:10:25.944Z,75.41
2018-05-26T00:11:25.928Z,75.22
2018-05-26T00:12:25.914Z,75.02
2018-05-26T00:13:25.898Z,74.74
2018-05-26T00:14:25.887Z,75.41
2018-05-26T00:15:25.871Z,75.79
2018-05-26T00:16:25.855Z,74.93
2018-05-26T00:17:25.838Z,74.74
2018-05-26T00:18:25.825Z,75.02
2018-05-26T00:19:25.810Z,74.84
2018-05-26T00:20:25.797Z,75.31
2018-05-26T00:21:25.779Z,75.60
2018-05-26T00:22:25.765Z,75.51
2018-05-26T00:23:25.753Z,74.84
2018-05-26T00:24:25.736Z,74.84
2018-05-26T00:25:25.722Z,75.70
2018-05-26T00:26:25.706Z,75.51
2018-05-26T00:27:25.693Z,75.98
2018-05-26T00:28:25.732Z,75.79
2018-05-26T00:29:25.725Z,76.04
2018-05-26T00:30:25.647Z,76.33
2018-05-26T00:31:25.636Z,75.95
2018-05-26T00:32:25.617Z,76.62
2018-05-26T00:33:25.603Z,77.28
2018-05-26T00:34:25.612Z,77.09
2018-05-26T00:35:25.572Z,77.48
2018-05-26T00:36:25.563Z,76.52
2018-05-26T00:37:25.543Z,76.90
2018-05-26T00:38:25.528Z,76.23
2018-05-26T00:39:25.525Z,77.19
2018-05-26T00:40:25.504Z,77.86
2018-05-26T00:41:25.491Z,77.09
2018-05-26T00:42:25.467Z,76.81
2018-05-26T00:43:25.457Z,76.52
2018-05-26T00:44:25.438Z,76.62
2018-05-26T00:45:25.423Z,75.95
2018-05-26T00:46:25.408Z,76.14
2018-05-26T00:47:25.392Z,76.33
2018-05-26T00:48:25.379Z,77.19
2018-05-26T00:49:25.361Z,76.52
2018-05-26T00:50:25.347Z,77.67
2018-05-26T00:51:25.333Z,77.57
2018-05-26T00:52:25.318Z,77.48
2018-05-26T00:53:25.305Z,78.20
2018-05-26T00:54:25.345Z,78.20
2018-05-26T00:55:25.278Z,79.20
2018-05-26T00:56:25.256Z,79.16
2018-05-26T00:57:25.245Z,78.87
2018-05-26T00:58:25.224Z,78.49
2018-05-26T00:59:25.209Z,78.72
2018-05-26T01:00:25.198Z,77.82
2018-05-26T01:01:25.181Z,78.24
2018-05-26T01:02:25.163Z,77.48
2018-05-26T01:03:25.148Z,77.00
2018-05-26T01:04:25.134Z,76.71
2018-05-26T01:05:25.117Z,76.71
2018-05-26T01:06:25.106Z,76.71
2018-05-26T01:07:25.097Z,76.04
2018-05-26T01:08:25.072Z,75.37
2018-05-26T01:09:25.055Z,76.23
2018-05-26T01:10:25.042Z,77.00
2018-05-26T01:11:25.026Z,77.38
2018-05-26T01:12:25.014Z,77.67
2018-05-26T01:13:24.995Z,77.09
2018-05-26T01:14:24.979Z,76.71
2018-05-26T01:15:24.963Z,76.42
2018-05-26T01:16:24.953Z,77.57
2018-05-26T01:17:24.939Z,78.05
2018-05-26T01:18:24.920Z,77.95
2018-05-26T01:19:24.905Z,78.24
2018-05-26T01:20:24.888Z,78.97
2018-05-26T01:21:24.871Z,78.58
2018-05-26T01:22:24.853Z,77.63
2018-05-26T01:23:24.842Z,78.39
2018-05-26T01:24:24.828Z,79.00
2018-05-26T01:25:24.810Z,78.68
2018-05-26T01:26:24.793Z,78.39
2018-05-26T01:27:24.779Z,77.57
2018-05-26T01:28:24.763Z,77.57
2018-05-26T01:29:24.747Z,76.71
2018-05-26T01:30:24.732Z,77.48
2018-05-26T01:31:24.718Z,77.76
2018-05-26T01:32:24.707Z,76.71
2018-05-26T01:33:24.685Z,76.04
2018-05-26T01:34:24.672Z,76.90
2018-05-26T01:35:24.656Z,77.00
2018-05-26T01:36:24.640Z,78.05
2018-05-26T01:37:24.623Z,77.38
2018-05-26T01:38:24.608Z,77.95
2018-05-26T01:39:24.590Z,78.34
2018-05-26T01:40:24.577Z,77.09
2018-05-26T01:41:24.561Z,77.19
2018-05-26T01:42:24.545Z,76.42
2018-05-26T01:43:24.531Z,77.76
2018-05-26T01:44:24.515Z,76.81
2018-05-26T01:45:24.495Z,76.52
2018-05-26T01:46:24.484Z,76.04
2018-05-26T01:47:24.466Z,76.81
2018-05-26T01:48:24.456Z,78.63
2018-05-26T01:49:24.438Z,78.34
2018-05-26T01:50:24.424Z,78.43
2018-05-26T01:51:24.405Z,78.49
2018-05-26T01:52:24.390Z,77.57
2018-05-26T01:53:24.373Z,77.92
2018-05-26T01:54:24.361Z,77.92
2018-05-26T01:55:24.341Z,78.39
2018-05-26T01:56:24.332Z,78.30
2018-05-26T01:57:24.311Z,76.86
2018-05-26T01:58:24.297Z,78.20
2018-05-26T01:59:24.279Z,78.68
2018-05-26T02:00:24.268Z,79.16
2018-05-26T02:01:24.250Z,80.02
2018-05-26T02:02:24.233Z,80.30
2018-05-26T02:03:24.222Z,80.21
2018-05-26T02:04:24.203Z,80.11
2018-05-26T02:05:24.185Z,80.50
2018-05-26T02:06:24.170Z,80.50
2018-05-26T02:07:24.153Z,81.45
2018-05-26T02:08:24.140Z,81.22
2018-05-26T02:09:24.120Z,81.03
2018-05-26T02:10:24.106Z,80.17
2018-05-26T02:11:24.090Z,80.74
2018-05-26T02:12:24.077Z,80.93
2018-05-26T02:13:24.064Z,81.70
2018-05-26T02:14:24.055Z,82.08
2018-05-26T02:15:24.027Z,81.22
2018-05-26T02:16:24.012Z,81.51
2018-05-26T02:17:23.993Z,81.51
2018-05-26T02:18:23.985Z,81.51
2018-05-26T02:19:23.963Z,81.79
2018-05-26T02:20:23.949Z,81.13
2018-05-26T02:21:23.932Z,81.22
2018-05-26T02:22:23.916Z,81.89
2018-05-26T02:23:23.903Z,81.51
2018-05-26T02:24:23.884Z,82.56
2018-05-26T02:25:23.871Z,81.60
2018-05-26T02:26:23.856Z,81.13
2018-05-26T02:27:23.835Z,82.37
2018-05-26T02:28:23.824Z,82.84
2018-05-26T02:29:23.804Z,82.65
2018-05-26T02:30:23.789Z,82.56
2018-05-26T02:31:23.775Z,82.18
2018-05-26T02:32:23.758Z,83.04
2018-05-26T02:33:23.741Z,81.41
2018-05-26T02:34:23.725Z,82.37
2018-05-26T02:35:23.708Z,82.84
2018-05-26T02:36:23.702Z,82.56
2018-05-26T02:37:23.682Z,82.37
2018-05-26T02:38:23.664Z,82.28
2018-05-26T02:39:23.645Z,82.28
2018-05-26T02:40:23.629Z,82.65
2018-05-26T02:41:23.613Z,82.18
2018-05-26T02:42:23.597Z,81.16
2018-05-26T02:43:23.582Z,81.74
2018-05-26T02:44:23.563Z,80.69
2018-05-26T02:45:23.550Z,80.59
2018-05-26T02:46:23.533Z,80.69
2018-05-26T02:47:23.516Z,81.26
2018-05-26T02:48:23.502Z,81.26
2018-05-26T02:49:23.489Z,81.93
2018-05-26T02:50:23.468Z,81.22
2018-05-26T02:51:23.453Z,81.65
2018-05-26T02:52:23.438Z,81.79
2018-05-26T02:53:23.420Z,81.41
2018-05-26T02:54:23.404Z,81.70
2018-05-26T02:55:23.389Z,82.28
2018-05-26T02:56:23.373Z,81.89
2018-05-26T02:57:23.352Z,81.51
2018-05-26T02:58:23.345Z,82.75
2018-05-26T02:59:23.323Z,82.08
2018-05-26T03:00:23.309Z,81.70
2018-05-26T03:01:23.292Z,81.41
2018-05-26T03:02:23.278Z,82.65
2018-05-26T03:03:23.259Z,82.56
2018-05-26T03:04:23.248Z,82.65
2018-05-26T03:05:23.229Z,83.04
2018-05-26T03:06:23.213Z,82.94
2018-05-26T03:07:23.203Z,82.56
2018-05-26T03:08:23.181Z,82.65
2018-05-26T03:09:23.161Z,82.28
2018-05-26T03:10:23.147Z,83.70
2018-05-26T03:11:23.130Z,83.42
2018-05-26T03:12:23.117Z,82.84
2018-05-26T03:13:23.149Z,83.13
2018-05-26T03:14:23.082Z,83.13
2018-05-26T03:15:23.068Z,83.51
2018-05-26T03:16:23.053Z,83.23
2018-05-26T03:17:23.045Z,83.23
2018-05-26T03:18:23.036Z,82.75
2018-05-26T03:19:23.000Z,82.56
2018-05-26T03:20:22.989Z,83.23
2018-05-26T03:21:22.968Z,83.23
2018-05-26T03:22:22.953Z,82.84
2018-05-26T03:23:22.936Z,83.42
2018-05-26T03:24:22.921Z,82.94
2018-05-26T03:25:22.903Z,83.61
2018-05-26T03:26:22.887Z,82.84
2018-05-26T03:27:22.871Z,82.84
2018-05-26T03:28:22.855Z,83.38
2018-05-26T03:29:22.840Z,83.61
2018-05-26T03:30:22.821Z,83.51
2018-05-26T03:31:22.808Z,83.51
2018-05-26T03:32:22.790Z,83.23
2018-05-26T03:33:22.774Z,84.09
2018-05-26T03:34:22.761Z,84.47
2018-05-26T03:35:22.741Z,83.99
2018-05-26T03:36:22.780Z,84.19
2018-05-26T03:37:22.712Z,84.38
2018-05-26T03:38:22.696Z,84.56
2018-05-26T03:39:22.673Z,83.70
2018-05-26T03:40:22.662Z,84.28
2018-05-26T03:41:22.650Z,83.99
2018-05-26T03:42:22.629Z,84.66
2018-05-26T03:43:22.611Z,84.38
2018-05-26T03:44:22.594Z,83.23
2018-05-26T03:45:22.578Z,83.70
2018-05-26T03:46:22.565Z,83.51
2018-05-26T03:47:22.545Z,83.80
2018-05-26T03:48:22.532Z,84.56
2018-05-26T03:49:22.516Z,84.19
2018-05-26T03:50:22.496Z,84.76
2018-05-26T03:51:22.482Z,84.66
2018-05-26T03:52:22.464Z,84.85
2018-05-26T03:53:22.447Z,84.95
2018-05-26T03:54:22.430Z,85.05
2018-05-26T03:55:22.413Z,84.47
2018-05-26T03:56:22.400Z,85.90
2018-05-26T03:57:22.380Z,85.62
2018-05-26T03:58:22.365Z,85.81
2018-05-26T03:59:22.353Z,84.95
2018-05-26T04:00:22.333Z,84.76
2018-05-26T04:01:22.321Z,84.66
2018-05-26T04:02:22.298Z,85.14
2018-05-26T04:03:22.286Z,84.56
2018-05-26T04:04:22.267Z,84.76
2018-05-26T04:05:22.251Z,84.95
2018-05-26T04:06:22.239Z,84.56
2018-05-26T04:07:22.220Z,85.62
2018-05-26T04:08:22.203Z,85.71
2018-05-26T04:09:22.189Z,85.52
2018-05-26T04:10:22.173Z,85.62
2018-05-26T04:11:22.187Z,85.71
2018-05-26T04:12:22.143Z,85.81
2018-05-26T04:13:22.123Z,85.33
2018-05-26T04:14:22.104Z,85.81
2018-05-26T04:15:22.088Z,85.52
2018-05-26T04:16:22.073Z,85.57
2018-05-26T04:17:22.056Z,85.90
2018-05-26T04:18:22.039Z,85.33
2018-05-26T04:19:22.023Z,85.47
2018-05-26T04:20:22.009Z,85.94
2018-05-26T04:21:21.993Z,86.57
2018-05-26T04:22:21.974Z,86.67
2018-05-26T04:23:21.960Z,86.43
2018-05-26T04:24:21.942Z,87.00
2018-05-26T04:25:21.925Z,87.19
2018-05-26T04:26:21.909Z,86.61
2018-05-26T04:27:21.893Z,86.52
2018-05-26T04:28:21.877Z,87.38
2018-05-26T04:29:21.864Z,87.09
2018-05-26T04:30:21.845Z,87.66
2018-05-26T04:31:21.837Z,87.09
2018-05-26T04:32:21.812Z,87.09
2018-05-26T04:33:21.796Z,87.19
2018-05-26T04:34:21.779Z,87.29
2018-05-26T04:35:21.794Z,88.15
2018-05-26T04:36:21.749Z,87.38
2018-05-26T04:37:21.731Z,86.43
2018-05-26T04:38:21.718Z,87.09
2018-05-26T04:39:21.698Z,87.00
2018-05-26T04:40:21.689Z,88.05
2018-05-26T04:41:21.667Z,88.05
2018-05-26T04:42:21.653Z,87.86
2018-05-26T04:43:21.640Z,87.76
2018-05-26T04:44:21.622Z,87.19
2018-05-26T04:45:21.602Z,87.29
2018-05-26T04:46:21.590Z,87.09
2018-05-26T04:47:21.569Z,87.19
2018-05-26T04:48:21.558Z,87.48
2018-05-26T04:49:21.538Z,87.38
2018-05-26T04:50:21.527Z,87.04
2018-05-26T04:51:21.508Z,87.04
2018-05-26T04:52:21.500Z,86.37
2018-05-26T04:53:21.471Z,86.28
2018-05-26T04:54:21.458Z,86.57
2018-05-26T04:55:21.443Z,86.57
2018-05-26T04:56:21.428Z,85.89
2018-05-26T04:57:21.413Z,85.89
2018-05-26T04:58:21.395Z,85.61
2018-05-26T04:59:21.380Z,86.66
2018-05-26T05:00:21.362Z,86.28
2018-05-26T05:01:21.346Z,85.84
2018-05-26T05:02:21.330Z,85.94
2018-05-26T05:03:21.315Z,85.65
2018-05-26T05:04:21.298Z,85.65
2018-05-26T05:05:21.285Z,85.08
2018-05-26T05:06:21.270Z,85.94
2018-05-26T05:07:21.255Z,84.69
2018-05-26T05:08:21.237Z,85.65
2018-05-26T05:09:21.222Z,85.46
2018-05-26T05:10:21.208Z,85.27
2018-05-26T05:11:21.187Z,85.55
2018-05-26T05:12:21.171Z,85.84
2018-05-26T05:13:21.155Z,85.84
2018-05-26T05:14:21.153Z,85.94
2018-05-26T05:15:21.178Z,85.27
2018-05-26T05:16:21.110Z,85.65
2018-05-26T05:17:21.093Z,85.65
2018-05-26T05:18:21.076Z,86.04
2018-05-26T05:19:21.065Z,86.22
2018-05-26T05:20:21.047Z,85.65
2018-05-26T05:21:21.031Z,85.79
2018-05-26T05:22:21.019Z,84.69
2018-05-26T05:23:20.998Z,84.74
2018-05-26T05:24:20.983Z,84.69
2018-05-26T05:25:20.967Z,84.31
2018-05-26T05:26:20.956Z,83.93
2018-05-26T05:27:20.935Z,84.16
2018-05-26T05:28:20.921Z,85.02
2018-05-26T05:29:20.913Z,85.69
2018-05-26T05:30:20.889Z,86.17
2018-05-26T05:31:20.875Z,85.98
2018-05-26T05:32:20.859Z,86.36
2018-05-26T05:33:20.847Z,85.88
2018-05-26T05:34:20.830Z,86.65
2018-05-26T05:35:20.812Z,86.08
2018-05-26T05:36:20.800Z,86.08
2018-05-26T05:37:20.781Z,86.65
2018-05-26T05:38:20.767Z,86.46
2018-05-26T05:39:20.752Z,86.31
2018-05-26T05:40:20.736Z,85.25
2018-05-26T05:41:20.721Z,85.25
2018-05-26T05:42:20.705Z,85.06
2018-05-26T05:43:20.691Z,85.16
2018-05-26T05:44:20.675Z,85.25
2018-05-26T05:45:20.660Z,84.91
2018-05-26T05:46:20.648Z,84.25
2018-05-26T05:47:20.631Z,83.67
2018-05-26T05:48:20.614Z,83.58
2018-05-26T05:49:20.597Z,83.09
2018-05-26T05:50:20.583Z,82.94
2018-05-26T05:51:20.568Z,82.56
2018-05-26T05:52:20.557Z,83.52
2018-05-26T05:53:20.538Z,83.91
2018-05-26T05:54:20.525Z,81.89
2018-05-26T05:55:20.506Z,81.60
2018-05-26T05:56:20.541Z,81.64
2018-05-26T05:57:20.480Z,80.97
2018-05-26T05:58:20.465Z,80.20
2018-05-26T05:59:20.448Z,79.44
2018-05-26T06:00:20.434Z,79.24
2018-05-26T06:01:20.419Z,78.57
2018-05-26T06:02:20.409Z,77.84
2018-05-26T06:03:20.390Z,77.84
2018-05-26T06:04:20.375Z,77.65
2018-05-26T06:05:20.359Z,77.36
2018-05-26T06:06:20.346Z,77.26
2018-05-26T06:07:20.331Z,77.17
2018-05-26T06:08:20.322Z,76.98
2018-05-26T06:09:20.304Z,76.82
2018-05-26T06:10:20.286Z,76.92
2018-05-26T06:11:20.273Z,75.96
2018-05-26T06:12:20.265Z,76.06
2018-05-26T06:13:20.251Z,76.15
2018-05-26T06:14:20.232Z,76.44
2018-05-26T06:15:20.233Z,76.09
2018-05-26T06:16:20.200Z,76.00
2018-05-26T06:17:20.195Z,76.00
2018-05-26T06:18:20.171Z,75.81
2018-05-26T06:19:20.159Z,75.62
2018-05-26T06:20:20.148Z,75.13
2018-05-26T06:21:20.131Z,74.46
2018-05-26T06:22:20.118Z,74.75
2018-05-26T06:23:20.101Z,75.13
2018-05-26T06:24:20.096Z,74.60
2018-05-26T06:25:20.078Z,73.44
2018-05-26T06:26:20.113Z,72.86
2018-05-26T06:27:20.050Z,73.06
2018-05-26T06:28:20.032Z,72.77
2018-05-26T06:29:20.016Z,73.15
2018-05-26T06:30:20.007Z,72.29
2018-05-26T06:31:19.991Z,72.00
2018-05-26T06:32:19.976Z,71.94
2018-05-26T06:33:19.961Z,72.03
2018-05-26T06:34:19.946Z,72.13
2018-05-26T06:35:19.936Z,69.63
2018-05-26T06:36:19.924Z,69.24
2018-05-26T06:37:19.906Z,71.17
2018-05-26T06:38:19.892Z,69.82
2018-05-26T06:39:19.879Z,69.15
2018-05-26T06:40:19.867Z,69.15
2018-05-26T06:41:19.850Z,68.70
2018-05-26T06:42:19.840Z,68.86
2018-05-26T06:43:19.825Z,67.74
2018-05-26T06:44:19.814Z,67.45
2018-05-26T06:45:19.815Z,67.35
2018-05-26T06:46:19.784Z,68.60
2018-05-26T06:47:19.775Z,68.32
2018-05-26T06:48:19.762Z,67.55
2018-05-26T06:49:19.746Z,67.83
2018-05-26T06:50:19.729Z,66.88
2018-05-26T06:51:19.730Z,68.44
2018-05-26T06:52:19.705Z,67.68
2018-05-26T06:53:19.690Z,66.91
2018-05-26T06:54:19.677Z,66.71
2018-05-26T06:55:19.668Z,65.27
2018-05-26T06:56:19.653Z,65.27
2018-05-26T06:57:19.639Z,65.56
2018-05-26T06:58:19.629Z,65.20
2018-05-26T06:59:19.616Z,64.53
2018-05-26T07:00:19.634Z,65.78
2018-05-26T07:01:19.589Z,64.63
2018-05-26T07:02:19.579Z,63.85
2018-05-26T07:03:19.567Z,64.53
2018-05-26T07:04:19.556Z,64.63
2018-05-26T07:05:19.537Z,64.73
2018-05-26T07:06:19.527Z,65.05
2018-05-26T07:07:19.515Z,63.02
2018-05-26T07:08:19.501Z,62.63
2018-05-26T07:09:19.488Z,63.41
2018-05-26T07:10:19.476Z,62.93
2018-05-26T07:11:19.470Z,63.89
2018-05-26T07:12:19.452Z,63.24
2018-05-26T07:13:19.437Z,63.34
2018-05-26T07:14:19.426Z,62.96
2018-05-26T07:15:19.411Z,61.03
2018-05-26T07:16:19.403Z,61.06
2018-05-26T07:17:19.390Z,60.48
2018-05-26T07:18:19.378Z,60.10
2018-05-26T07:19:19.362Z,58.94
2018-05-26T07:20:19.362Z,59.32
2018-05-26T07:21:19.340Z,59.23
2018-05-26T07:22:19.330Z,58.97
2018-05-26T07:23:19.317Z,57.62
2018-05-26T07:24:19.307Z,58.77
2018-05-26T07:25:19.290Z,57.71
2018-05-26T07:26:19.289Z,57.35
2018-05-26T07:27:19.271Z,56.96
2018-05-26T07:28:19.273Z,55.81
2018-05-26T07:29:19.247Z,54.84
2018-05-26T07:30:19.231Z,54.65
2018-05-26T07:31:19.225Z,54.65
2018-05-26T07:32:19.213Z,54.49
2018-05-26T07:33:19.198Z,54.10
2018-05-26T07:34:19.187Z,54.00
2018-05-26T07:35:19.175Z,53.91
2018-05-26T07:36:19.167Z,54.87
2018-05-26T07:37:19.153Z,55.16
2018-05-26T07:38:19.142Z,54.58
2018-05-26T07:39:19.131Z,52.00
2018-05-26T07:40:19.121Z,52.77
2018-05-26T07:41:19.109Z,53.45
2018-05-26T07:42:19.102Z,51.83
2018-05-26T07:43:19.087Z,51.93
2018-05-26T07:44:19.080Z,51.73
2018-05-26T07:45:19.064Z,51.18
2018-05-26T07:46:19.059Z,51.37
2018-05-26T07:47:19.060Z,50.62
2018-05-26T07:48:19.035Z,48.52
2018-05-26T07:49:19.024Z,48.83
2018-05-26T07:50:19.013Z,48.27
2018-05-26T07:51:19.003Z,46.92
2018-05-26T07:52:18.991Z,47.81
2018-05-26T07:53:18.982Z,45.12
2018-05-26T07:54:18.971Z,44.27
2018-05-26T07:55:18.961Z,44.48
2018-05-26T07:56:18.950Z,44.02
2018-05-26T07:57:18.942Z,43.65
2018-05-26T07:58:19.019Z,42.68
2018-05-26T07:59:18.921Z,41.44
2018-05-26T08:00:18.916Z,41.26
2018-05-26T08:01:18.901Z,40.47
2018-05-26T08:02:18.891Z,41.90
2018-05-26T08:03:18.889Z,41.98
2018-05-26T08:04:18.873Z,42.83
2018-05-26T08:05:18.877Z,41.08
2018-05-26T08:06:18.855Z,43.01
2018-05-26T08:07:18.845Z,43.30
2018-05-26T08:08:18.835Z,43.20
2018-05-26T08:09:18.829Z,44.65
2018-05-26T08:10:18.821Z,45.61
2018-05-26T08:11:18.812Z,45.61
2018-05-26T08:12:18.801Z,45.41
2018-05-26T08:13:18.791Z,45.02
2018-05-26T08:14:18.781Z,45.80
2018-05-26T08:15:18.774Z,45.41
2018-05-26T08:16:18.765Z,45.61
2018-05-26T08:17:18.805Z,46.96
2018-05-26T08:18:18.793Z,46.96
2018-05-26T08:19:18.740Z,46.38
2018-05-26T08:20:18.730Z,45.51
2018-05-26T08:21:18.720Z,44.15
2018-05-26T08:22:18.716Z,43.76
2018-05-26T08:23:18.704Z,43.76
2018-05-26T08:24:18.696Z,43.95
2018-05-26T08:25:18.692Z,45.51
2018-05-26T08:26:18.677Z,45.12
2018-05-26T08:27:18.709Z,43.57
2018-05-26T08:28:18.663Z,43.93
2018-05-26T08:29:18.655Z,44.44
2018-05-26T08:30:18.649Z,45.39
2018-05-26T08:31:18.637Z,45.87
2018-05-26T08:32:18.626Z,45.48
2018-05-26T08:33:18.623Z,45.39
2018-05-26T08:34:18.611Z,45.31
2018-05-26T08:35:18.605Z,45.02
2018-05-26T08:36:18.593Z,45.41
2018-05-26T08:37:18.586Z,44.64
2018-05-26T08:38:18.581Z,44.34
2018-05-26T08:39:18.568Z,44.44
2018-05-26T08:40:18.560Z,44.34
2018-05-26T08:41:18.555Z,46.28
2018-05-26T08:42:18.547Z,45.61
2018-05-26T08:43:18.537Z,44.15
2018-05-26T08:44:18.529Z,44.56
2018-05-26T08:45:18.519Z,45.02
2018-05-26T08:46:18.516Z,43.66
2018-05-26T08:47:18.503Z,42.23
2018-05-26T08:48:18.495Z,42.79
2018-05-26T08:49:18.489Z,43.49
2018-05-26T08:50:18.493Z,43.88
2018-05-26T08:51:18.472Z,43.68
2018-05-26T08:52:18.465Z,42.81
2018-05-26T08:53:18.459Z,41.64
2018-05-26T08:54:18.447Z,42.23
2018-05-26T08:55:18.441Z,43.01
2018-05-26T08:56:18.435Z,41.84
2018-05-26T08:57:18.426Z,42.93
2018-05-26T08:58:18.415Z,43.02
2018-05-26T08:59:18.408Z,41.36
2018-05-26T09:00:18.410Z,43.78
2018-05-26T09:01:18.397Z,43.71
2018-05-26T09:02:18.459Z,41.86
2018-05-26T09:03:18.377Z,40.21
2018-05-26T09:04:18.374Z,41.18
2018-05-26T09:05:18.367Z,41.08
2018-05-26T09:06:18.358Z,42.05
2018-05-26T09:07:18.350Z,41.38
2018-05-26T09:08:18.343Z,41.86
2018-05-26T09:09:18.344Z,41.86
2018-05-26T09:10:18.328Z,41.69
2018-05-26T09:11:18.339Z,42.08
2018-05-26T09:12:18.311Z,39.45
2018-05-26T09:13:18.303Z,40.42
2018-05-26T09:14:18.296Z,40.42
2018-05-26T09:15:18.288Z,40.33
2018-05-26T09:16:18.283Z,40.33
2018-05-26T09:17:18.272Z,41.59
2018-05-26T09:18:18.267Z,40.52
2018-05-26T09:19:18.258Z,41.59
2018-05-26T09:20:18.264Z,41.59
2018-05-26T09:21:18.248Z,41.69
2018-05-26T09:22:18.237Z,42.46
2018-05-26T09:23:18.229Z,42.18
2018-05-26T09:24:18.224Z,42.27
2018-05-26T09:25:18.250Z,42.58
2018-05-26T09:26:18.208Z,42.00
2018-05-26T09:27:18.201Z,41.80
2018-05-26T09:28:18.198Z,41.32
2018-05-26T09:29:18.184Z,40.44
2018-05-26T09:30:18.210Z,40.34
2018-05-26T09:31:18.210Z,40.47
2018-05-26T09:32:18.165Z,39.98
2018-05-26T09:33:18.158Z,41.73
2018-05-26T09:34:18.149Z,40.56
2018-05-26T09:35:18.143Z,40.64
2018-05-26T09:36:18.137Z,39.57
2018-05-26T09:37:18.130Z,39.29
2018-05-26T09:38:18.131Z,38.40
2018-05-26T09:39:18.117Z,38.98
2018-05-26T09:40:18.110Z,38.79
2018-05-26T09:41:18.109Z,40.54
2018-05-26T09:42:18.096Z,40.34
2018-05-26T09:43:18.100Z,42.49
2018-05-26T09:44:18.082Z,40.27
2018-05-26T09:45:18.076Z,39.49
2018-05-26T09:46:18.071Z,39.69
2018-05-26T09:47:18.065Z,40.66
2018-05-26T09:48:18.060Z,40.66
2018-05-26T09:49:18.051Z,39.88
2018-05-26T09:50:18.049Z,39.00
2018-05-26T09:51:18.035Z,37.54
2018-05-26T09:52:18.029Z,37.54
2018-05-26T09:53:18.023Z,38.32
2018-05-26T09:54:18.016Z,38.62
2018-05-26T09:55:18.009Z,37.93
2018-05-26T09:56:18.007Z,37.06
2018-05-26T09:57:17.997Z,37.27
2018-05-26T09:58:17.991Z,36.80
2018-05-26T09:59:17.991Z,36.53
2018-05-26T10:00:17.979Z,34.99
2018-05-26T10:01:17.972Z,33.15
2018-05-26T10:02:17.966Z,34.22
2018-05-26T10:03:17.962Z,33.85
2018-05-26T10:04:17.994Z,33.18
2018-05-26T10:05:18.015Z,33.79
2018-05-26T10:06:17.947Z,33.80
2018-05-26T10:07:17.946Z,33.82
2018-05-26T10:08:17.943Z,33.84
2018-05-26T10:09:17.941Z,33.26
2018-05-26T10:10:17.934Z,31.71
2018-05-26T10:11:17.931Z,31.23
2018-05-26T10:12:17.928Z,30.44
2018-05-26T10:13:17.930Z,30.25
2018-05-26T10:14:17.923Z,30.16
2018-05-26T10:15:17.921Z,30.57
2018-05-26T10:16:17.919Z,29.50
2018-05-26T10:17:17.915Z,29.02
2018-05-26T10:18:17.914Z,28.92
2018-05-26T10:19:17.913Z,28.72
2018-05-26T10:20:17.911Z,29.62
2018-05-26T10:21:17.907Z,28.95
2018-05-26T10:22:17.907Z,29.06
2018-05-26T10:23:17.912Z,25.62
2018-05-26T10:24:17.905Z,27.89
2018-05-26T10:25:17.907Z,25.63
2018-05-26T10:26:17.975Z,27.02
2018-05-26T10:27:17.907Z,25.55
2018-05-26T10:28:17.905Z,25.76
2018-05-26T10:29:17.901Z,24.38
2018-05-26T10:30:17.907Z,26.56
2018-05-26T10:31:17.899Z,25.08
2018-05-26T10:32:17.949Z,26.67
2018-05-26T10:33:17.902Z,24.91
2018-05-26T10:34:17.906Z,26.10
2018-05-26T10:35:17.902Z,24.05
2018-05-26T10:36:17.904Z,22.28
2018-05-26T10:37:17.904Z,24.17
2018-05-26T10:38:17.905Z,23.08
2018-05-26T10:39:17.905Z,22.59
2018-05-26T10:40:17.910Z,25.86
2018-05-26T10:41:17.906Z,22.80
2018-05-26T10:42:17.910Z,23.21
2018-05-26T10:43:17.963Z,23.61
2018-05-26T10:44:17.914Z,22.83
2018-05-26T10:45:17.921Z,19.85
2018-05-26T10:46:17.918Z,19.17
2018-05-26T10:47:17.944Z,21.45
2018-05-26T10:48:17.924Z,21.64
2018-05-26T10:49:17.924Z,20.06
2018-05-26T10:50:17.928Z,20.17
2018-05-26T10:51:17.929Z,19.29
2018-05-26T10:52:17.932Z,19.70
2018-05-26T10:53:17.935Z,19.01
2018-05-26T10:54:17.938Z,20.20
2018-05-26T10:55:17.943Z,20.31
2018-05-26T10:56:17.945Z,19.03
2018-05-26T10:57:17.954Z,19.73
2018-05-26T10:58:17.953Z,19.93
2018-05-26T10:59:17.957Z,19.62
2018-05-26T11:00:17.960Z,19.79
2018-05-26T11:01:17.964Z,19.67
2018-05-26T11:02:17.967Z,19.34
2018-05-26T11:03:17.971Z,20.89
2018-05-26T11:04:18.044Z,22.85
2018-05-26T11:05:17.975Z,23.04
2018-05-26T11:06:18.004Z,23.32
2018-05-26T11:07:17.984Z,25.87
2018-05-26T11:08:17.985Z,24.87
2018-05-26T11:09:17.985Z,25.46
2018-05-26T11:10:17.988Z,23.77
2018-05-26T11:11:17.988Z,24.84
2018-05-26T11:12:17.993Z,25.40
2018-05-26T11:13:17.989Z,25.20
2018-05-26T11:14:17.996Z,26.95
2018-05-26T11:15:17.993Z,25.66
2018-05-26T11:16:17.995Z,25.45
2018-05-26T11:17:17.996Z,27.00
2018-05-26T11:18:17.996Z,28.96
2018-05-26T11:19:17.996Z,28.75
2018-05-26T11:20:18.076Z,27.67
2018-05-26T11:21:17.995Z,27.49
2018-05-26T11:22:17.998Z,27.33
2018-05-26T11:23:18.008Z,26.96
2018-05-26T11:24:18.004Z,28.08
2018-05-26T11:25:17.998Z,25.45
2018-05-26T11:26:18.056Z,24.40
2018-05-26T11:27:17.996Z,24.41
2018-05-26T11:28:18.006Z,24.74
2018-05-26T11:29:17.995Z,22.58
2018-05-26T11:30:18.015Z,21.21
2018-05-26T11:31:17.998Z,21.51
2018-05-26T11:32:18.002Z,20.04
2018-05-26T11:33:17.999Z,19.85
2018-05-26T11:34:18.013Z,21.46
2018-05-26T11:35:17.999Z,20.29
2018-05-26T11:36:18.008Z,21.09
2018-05-26T11:37:18.030Z,17.14
2018-05-26T11:38:18.005Z,16.25
2018-05-26T11:39:18.014Z,17.65
2018-05-26T11:40:18.010Z,15.86
2018-05-26T11:41:18.012Z,16.96
2018-05-26T11:42:18.014Z,17.06
2018-05-26T11:43:18.016Z,16.27
2018-05-26T11:44:18.019Z,14.88
2018-05-26T11:45:18.020Z,15.67
2018-05-26T11:46:18.024Z,16.76
2018-05-26T11:47:18.024Z,17.86
2018-05-26T11:48:18.027Z,17.36
2018-05-26T11:49:18.027Z,16.75
2018-05-26T11:50:18.032Z,18.32
2018-05-26T11:51:18.032Z,18.90
2018-05-26T11:52:18.036Z,19.28
2018-05-26T11:53:18.080Z,18.97
2018-05-26T11:54:18.038Z,20.92
2018-05-26T11:55:18.039Z,21.51
2018-05-26T11:56:18.039Z,21.62
2018-05-26T11:57:18.043Z,19.47
2018-05-26T11:58:18.046Z,21.05
2018-05-26T11:59:18.045Z,20.55
2018-05-26T12:00:18.057Z,20.62
2018-05-26T12:01:18.056Z,21.70
2018-05-26T12:02:18.050Z,21.89
2018-05-26T12:03:18.058Z,20.03
2018-05-26T12:04:18.054Z,20.41
2018-05-26T12:05:18.056Z,20.01
2018-05-26T12:06:18.055Z,22.30
2018-05-26T12:07:18.065Z,20.73
2018-05-26T12:08:18.059Z,21.32
2018-05-26T12:09:18.059Z,20.14
2018-05-26T12:10:18.060Z,18.66
2018-05-26T12:11:18.067Z,19.36
2018-05-26T12:12:18.068Z,21.25
2018-05-26T12:13:18.069Z,22.36
2018-05-26T12:14:18.072Z,19.20
2018-05-26T12:15:18.073Z,17.82
2018-05-26T12:16:18.073Z,19.41
2018-05-26T12:17:18.075Z,18.41
2018-05-26T12:18:18.075Z,18.71
2018-05-26T12:19:18.078Z,19.71
2018-05-26T12:20:18.080Z,18.73
2018-05-26T12:21:18.089Z,19.53
2018-05-26T12:22:18.088Z,17.54
2018-05-26T12:23:18.091Z,19.32
2018-05-26T12:24:18.102Z,18.93
2018-05-26T12:25:18.092Z,16.86
2018-05-26T12:26:18.102Z,16.57
2018-05-26T12:27:18.097Z,17.37
2018-05-26T12:28:18.100Z,17.77
2018-05-26T12:29:18.103Z,15.09
2018-05-26T12:30:18.105Z,15.37
2018-05-26T12:31:18.111Z,15.46
2018-05-26T12:32:18.112Z,15.25
2018-05-26T12:33:18.120Z,16.93
2018-05-26T12:34:18.117Z,17.12
2018-05-26T12:35:18.129Z,16.53
2018-05-26T12:36:18.125Z,16.03
2018-05-26T12:37:18.126Z,15.33
2018-05-26T12:38:18.131Z,16.71
2018-05-26T12:39:18.133Z,17.51
2018-05-26T12:40:18.136Z,16.63
2018-05-26T12:41:18.138Z,16.72
2018-05-26T12:42:18.141Z,16.72
2018-05-26T12:43:18.142Z,17.19
2018-05-26T12:44:18.145Z,16.89
2018-05-26T12:45:18.238Z,18.08
2018-05-26T12:46:18.151Z,18.58
2018-05-26T12:47:18.149Z,18.10
2018-05-26T12:48:18.152Z,17.89
2018-05-26T12:49:18.152Z,18.98
2018-05-26T12:50:18.153Z,20.26
2018-05-26T12:51:18.155Z,17.19
2018-05-26T12:52:18.257Z,16.81